Terminal Aerodrome Forecast
Issued by NWS

Home | Current Version | Previous Version | Text Only | Print | Product List | Glossary On
Versions: 1 2 3 4 5 6 7 8 9 10 11 12 13 14 15 16
000
FTUS44 KCRP 302340
TAFALI
TAF
KALI 302340Z 0100/0124 04010KT P6SM SCT250
     FM010300 11006KT P6SM SCT012 BKN250
     FM010800 11005KT 2SM BR SCT009
      TEMPO 0108/0112 1/2SM FG BKN005
     FM011500 10008KT 6SM HZ BKN020
     FM011800 11012G18KT P6SM SCT030 PROB30 0121/0124 VRB20G30KT 5SM
      TSRA BKN025CB=

USA.gov is the U.S. government's official web portal to all federal, state and local government web resources and services.